createdAt,value
2022-10-19T00:01:07.554Z,14.20
2022-10-19T00:03:34.785Z,14.20
2022-10-19T00:06:09.863Z,14.20
2022-10-19T00:08:36.616Z,14.10
2022-10-19T00:11:03.390Z,14.20
2022-10-19T00:13:30.170Z,14.20
2022-10-19T00:15:56.931Z,14.20
2022-10-19T00:18:25.780Z,14.20
2022-10-19T00:20:52.688Z,14.10
2022-10-19T00:23:21.024Z,14.10
2022-10-19T00:25:57.405Z,14.00
2022-10-19T00:28:26.544Z,14.00
2022-10-19T00:30:55.597Z,13.90
2022-10-19T00:33:24.592Z,13.90
2022-10-19T00:35:56.450Z,13.90
2022-10-19T00:38:23.206Z,13.90
2022-10-19T00:40:50.024Z,13.80
2022-10-19T00:43:22.025Z,13.70
2022-10-19T00:45:48.876Z,13.80
2022-10-19T00:48:42.892Z,13.80
2022-10-19T00:51:09.691Z,13.80
2022-10-19T00:53:36.600Z,13.80
2022-10-19T00:56:05.502Z,13.80
2022-10-19T00:58:32.396Z,13.70
2022-10-19T01:01:03.433Z,13.70
2022-10-19T01:03:30.343Z,13.70
2022-10-19T01:05:57.071Z,13.60
2022-10-19T01:08:23.871Z,13.60
2022-10-19T01:11:02.058Z,13.60
2022-10-19T01:14:05.022Z,13.50
2022-10-19T01:16:46.758Z,13.50
2022-10-19T01:19:31.552Z,13.40
2022-10-19T01:22:12.596Z,13.40
2022-10-19T01:25:17.415Z,13.40
2022-10-19T01:27:55.621Z,13.40
2022-10-19T01:30:37.431Z,13.40
2022-10-19T01:33:10.113Z,13.30
2022-10-19T01:35:43.293Z,13.30
2022-10-19T01:38:20.098Z,13.20
2022-10-19T01:40:49.876Z,13.20
2022-10-19T01:43:29.710Z,13.20
2022-10-19T01:46:09.858Z,13.20
2022-10-19T01:48:39.733Z,13.10
2022-10-19T01:51:09.557Z,13.20
2022-10-19T01:53:42.797Z,13.20
2022-10-19T01:56:09.753Z,13.10
2022-10-19T01:58:37.465Z,13.10
2022-10-19T02:01:05.719Z,13.10
2022-10-19T02:03:34.045Z,13.00
2022-10-19T02:06:00.936Z,13.00
2022-10-19T02:08:39.310Z,13.00
2022-10-19T02:11:06.166Z,13.00
2022-10-19T02:13:37.998Z,12.90
2022-10-19T02:16:10.288Z,12.90
2022-10-19T02:18:39.598Z,12.90
2022-10-19T02:21:06.514Z,12.90
2022-10-19T02:23:36.145Z,12.90
2022-10-19T02:26:02.972Z,12.90
2022-10-19T02:28:29.931Z,12.90
2022-10-19T02:30:57.102Z,12.90
2022-10-19T02:33:23.991Z,12.80
2022-10-19T02:35:50.815Z,12.80
2022-10-19T02:38:20.056Z,12.80
2022-10-19T02:41:01.052Z,12.80
2022-10-19T02:43:27.889Z,12.80
2022-10-19T02:46:01.920Z,12.90
2022-10-19T02:48:29.750Z,12.80
2022-10-19T02:50:58.735Z,12.80
2022-10-19T02:53:28.186Z,12.80
2022-10-19T02:55:54.958Z,12.80
2022-10-19T02:58:21.744Z,12.80
2022-10-19T03:00:48.558Z,12.80
2022-10-19T03:03:17.846Z,12.70
2022-10-19T03:05:44.673Z,12.70
2022-10-19T03:08:11.417Z,12.70
2022-10-19T03:10:38.210Z,12.60
2022-10-19T03:13:05.174Z,12.50
2022-10-19T03:15:31.980Z,12.50
2022-10-19T03:17:58.769Z,12.50
2022-10-19T03:20:28.170Z,12.50
2022-10-19T03:22:54.977Z,12.50
2022-10-19T03:25:24.052Z,12.50
2022-10-19T03:27:50.870Z,12.50
2022-10-19T03:30:19.853Z,12.50
2022-10-19T03:32:48.858Z,12.40
2022-10-19T03:35:15.728Z,12.40
2022-10-19T03:37:42.500Z,12.40
2022-10-19T03:40:09.845Z,12.40
2022-10-19T03:42:36.630Z,12.40
2022-10-19T03:45:03.795Z,12.40
2022-10-19T03:47:33.070Z,12.50
2022-10-19T03:50:00.155Z,12.50
2022-10-19T03:52:26.942Z,12.40
2022-10-19T03:54:56.157Z,12.40
2022-10-19T03:57:22.926Z,12.40
2022-10-19T03:59:49.739Z,12.40
2022-10-19T04:02:18.656Z,12.40
2022-10-19T04:04:45.389Z,12.30
2022-10-19T04:07:14.684Z,12.30
2022-10-19T04:09:43.680Z,12.30
2022-10-19T04:12:10.464Z,12.30
2022-10-19T04:14:52.586Z,12.30
2022-10-19T04:17:23.475Z,12.30
2022-10-19T04:19:50.242Z,12.30
2022-10-19T04:22:16.974Z,12.30
2022-10-19T04:24:43.748Z,12.30
2022-10-19T04:27:12.895Z,12.30
2022-10-19T04:29:39.738Z,12.30
2022-10-19T04:32:06.608Z,12.30
2022-10-19T04:34:35.277Z,12.20
2022-10-19T04:37:04.520Z,12.20
2022-10-19T04:39:31.301Z,12.20
2022-10-19T04:41:58.155Z,12.20
2022-10-19T04:44:24.915Z,12.30
2022-10-19T04:46:51.787Z,12.20
2022-10-19T04:49:20.919Z,12.20
2022-10-19T04:51:50.054Z,12.30
2022-10-19T04:54:21.396Z,12.30
2022-10-19T04:56:48.168Z,12.30
2022-10-19T04:59:17.340Z,12.30
2022-10-19T05:01:46.492Z,12.30
2022-10-19T05:04:14.169Z,12.30
2022-10-19T05:06:40.902Z,12.30
2022-10-19T05:09:07.755Z,12.30
2022-10-19T05:11:34.544Z,12.30
2022-10-19T05:14:01.366Z,12.30
2022-10-19T05:16:28.205Z,12.30
2022-10-19T05:18:59.725Z,12.30
2022-10-19T05:21:29.468Z,12.30
2022-10-19T05:23:56.412Z,12.30
2022-10-19T05:26:24.462Z,12.20
2022-10-19T05:28:56.899Z,12.20
2022-10-19T05:31:27.767Z,12.20
2022-10-19T05:33:56.531Z,12.20
2022-10-19T05:36:36.975Z,12.30
2022-10-19T05:39:13.258Z,12.30
2022-10-19T05:41:42.984Z,12.30
2022-10-19T05:44:15.012Z,12.30
2022-10-19T05:46:41.872Z,12.30
2022-10-19T05:49:09.771Z,12.40
2022-10-19T05:51:38.724Z,12.40
2022-10-19T05:54:05.760Z,12.40
2022-10-19T05:56:34.793Z,12.50
2022-10-19T05:59:03.849Z,12.50
2022-10-19T06:01:30.672Z,12.50
2022-10-19T06:03:58.280Z,12.40
2022-10-19T06:06:27.696Z,12.50
2022-10-19T06:08:57.307Z,12.50
2022-10-19T06:11:27.865Z,12.50
2022-10-19T06:13:55.732Z,12.50
2022-10-19T06:16:24.036Z,12.40
2022-10-19T06:18:50.827Z,12.40
2022-10-19T06:21:19.878Z,12.40
2022-10-19T06:23:53.328Z,12.50
2022-10-19T06:26:20.625Z,12.50
2022-10-19T06:28:52.380Z,12.50
2022-10-19T06:31:19.187Z,12.50
2022-10-19T06:33:49.493Z,12.50
2022-10-19T06:36:23.706Z,12.50
2022-10-19T06:38:50.754Z,12.50
2022-10-19T06:41:17.565Z,12.50
2022-10-19T06:43:44.549Z,12.50
2022-10-19T06:46:15.594Z,12.50
2022-10-19T06:48:42.367Z,12.30
2022-10-19T06:51:09.264Z,12.30
2022-10-19T06:53:36.244Z,12.30
2022-10-19T06:56:07.106Z,12.30
2022-10-19T06:58:37.716Z,12.30
2022-10-19T07:01:04.887Z,12.30
2022-10-19T07:03:31.714Z,12.30
2022-10-19T07:06:02.105Z,12.30
2022-10-19T07:08:30.001Z,12.30
2022-10-19T07:11:02.121Z,12.40
2022-10-19T07:13:29.072Z,12.40
2022-10-19T07:16:06.876Z,12.40
2022-10-19T07:18:41.927Z,12.40
2022-10-19T07:21:10.931Z,12.50
2022-10-19T07:23:41.011Z,12.40
2022-10-19T07:26:26.421Z,12.30
2022-10-19T07:28:53.521Z,12.20
2022-10-19T07:31:24.289Z,12.30
2022-10-19T07:34:01.494Z,12.40
2022-10-19T07:36:29.134Z,12.50
2022-10-19T07:38:55.971Z,12.50
2022-10-19T07:41:24.190Z,12.50
2022-10-19T07:43:51.252Z,12.60
2022-10-19T07:46:21.845Z,12.50
2022-10-19T07:48:48.782Z,12.60
2022-10-19T07:51:16.353Z,12.60
2022-10-19T07:53:45.772Z,12.60
2022-10-19T07:56:14.145Z,12.50
2022-10-19T07:58:46.016Z,12.60
2022-10-19T08:01:15.475Z,12.60
2022-10-19T08:04:48.613Z,12.60
2022-10-19T08:06:31.973Z,12.70
2022-10-19T08:08:58.855Z,12.70
2022-10-19T08:11:26.741Z,12.80
2022-10-19T08:13:58.650Z,12.70
2022-10-19T08:16:32.849Z,12.70
2022-10-19T08:19:04.122Z,12.80
2022-10-19T08:21:31.125Z,12.90
2022-10-19T08:23:57.999Z,12.90
2022-10-19T08:26:25.068Z,13.00
2022-10-19T08:28:58.645Z,13.00
2022-10-19T08:31:27.578Z,13.00
2022-10-19T08:33:54.341Z,12.90
2022-10-19T08:36:21.559Z,12.80
2022-10-19T08:38:48.994Z,12.70
2022-10-19T08:41:35.979Z,12.70
2022-10-19T08:44:36.415Z,12.70
2022-10-19T08:47:11.912Z,12.70
2022-10-19T08:49:43.709Z,12.60
2022-10-19T08:52:32.025Z,12.60
2022-10-19T08:55:07.246Z,12.60
2022-10-19T08:57:37.412Z,12.60
2022-10-19T09:00:13.263Z,12.50
2022-10-19T09:03:03.637Z,12.40
2022-10-19T09:05:50.785Z,12.40
2022-10-19T09:08:17.955Z,12.40
2022-10-19T09:10:46.174Z,12.40
2022-10-19T09:13:36.456Z,12.40
2022-10-19T09:16:15.239Z,12.40
2022-10-19T09:18:47.003Z,12.50
2022-10-19T09:21:21.554Z,12.50
2022-10-19T09:24:04.530Z,12.50
2022-10-19T09:26:36.835Z,12.50
2022-10-19T09:29:26.575Z,12.50
2022-10-19T09:34:38.442Z,12.60
2022-10-19T09:37:05.307Z,12.60
2022-10-19T09:39:32.372Z,12.50
2022-10-19T09:42:15.568Z,12.60
2022-10-19T09:44:42.424Z,12.50
2022-10-19T09:47:37.352Z,12.50
2022-10-19T09:50:19.123Z,12.50
2022-10-19T09:52:47.168Z,12.40
2022-10-19T09:55:13.906Z,12.40
2022-10-19T09:57:44.468Z,12.50
2022-10-19T10:00:27.187Z,12.50
2022-10-19T10:02:55.440Z,12.50
2022-10-19T10:05:34.413Z,12.60
2022-10-19T10:08:01.283Z,12.60
2022-10-19T10:10:34.652Z,12.70
2022-10-19T10:13:01.378Z,12.80
2022-10-19T10:15:29.966Z,12.70
2022-10-19T10:17:56.754Z,12.70
2022-10-19T10:20:30.368Z,12.60
2022-10-19T10:23:02.982Z,12.60
2022-10-19T10:25:35.184Z,12.40
2022-10-19T10:28:19.455Z,12.40
2022-10-19T10:30:46.827Z,12.30
2022-10-19T10:33:26.957Z,12.30
2022-10-19T10:36:05.697Z,12.30
2022-10-19T10:38:34.632Z,12.20
2022-10-19T10:41:04.105Z,12.10
2022-10-19T10:43:37.699Z,12.10
2022-10-19T10:46:25.777Z,12.10
2022-10-19T10:48:57.404Z,12.10
2022-10-19T10:51:35.024Z,12.10
2022-10-19T10:54:28.066Z,12.10
2022-10-19T10:57:16.863Z,12.20
2022-10-19T10:59:51.989Z,12.20
2022-10-19T11:02:21.585Z,12.20
2022-10-19T11:04:54.741Z,12.20
2022-10-19T11:07:23.816Z,12.10
2022-10-19T11:09:56.939Z,12.10
2022-10-19T11:12:47.655Z,12.20
2022-10-19T11:18:05.612Z,12.30
2022-10-19T11:20:34.864Z,12.30
2022-10-19T11:23:28.052Z,12.40
2022-10-19T11:26:03.058Z,12.30
2022-10-19T11:28:44.292Z,12.30
2022-10-19T11:31:45.908Z,12.40
2022-10-19T11:35:11.562Z,12.50
2022-10-19T11:38:17.335Z,12.50
2022-10-19T11:43:53.688Z,12.50
2022-10-19T11:47:02.767Z,12.60
2022-10-19T11:49:44.722Z,12.70
2022-10-19T11:52:15.733Z,12.80
2022-10-19T11:55:03.566Z,12.80
2022-10-19T11:58:15.099Z,12.90
2022-10-19T12:00:47.111Z,12.80
2022-10-19T12:03:29.635Z,12.90
2022-10-19T12:05:59.387Z,12.90
2022-10-19T12:08:37.860Z,12.80
2022-10-19T12:11:23.646Z,12.90
2022-10-19T12:13:56.666Z,12.90
2022-10-19T12:16:28.495Z,12.80
2022-10-19T12:18:56.020Z,12.70
2022-10-19T12:21:29.991Z,12.70
2022-10-19T12:24:00.595Z,12.80
2022-10-19T12:26:28.011Z,12.70
2022-10-19T12:28:57.753Z,12.70
2022-10-19T12:31:27.028Z,12.60
2022-10-19T12:33:53.789Z,12.70
2022-10-19T12:36:39.238Z,12.70
2022-10-19T12:39:08.145Z,12.70
2022-10-19T12:41:56.676Z,12.80
2022-10-19T12:44:45.915Z,12.80
2022-10-19T12:47:17.775Z,12.80
2022-10-19T12:49:48.975Z,12.80
2022-10-19T12:52:35.913Z,12.90
2022-10-19T12:55:15.860Z,12.90
2022-10-19T12:57:48.346Z,12.90
2022-10-19T13:00:24.998Z,13.00
2022-10-19T13:03:24.027Z,12.90
2022-10-19T13:06:02.968Z,12.90
2022-10-19T13:08:32.745Z,12.90
2022-10-19T13:11:14.678Z,12.90
2022-10-19T13:14:01.770Z,12.70
2022-10-19T13:16:30.650Z,12.80
2022-10-19T13:19:01.745Z,12.80
2022-10-19T13:21:54.365Z,12.80
2022-10-19T13:24:24.148Z,12.80
2022-10-19T13:27:02.961Z,12.70
2022-10-19T13:29:29.759Z,12.70
2022-10-19T13:31:58.728Z,12.70
2022-10-19T13:34:27.941Z,12.70
2022-10-19T13:37:01.806Z,12.70
2022-10-19T13:39:28.552Z,12.80
2022-10-19T13:41:56.441Z,12.80
2022-10-19T13:44:27.991Z,12.90
2022-10-19T13:47:03.381Z,12.90
2022-10-19T13:49:51.002Z,12.90
2022-10-19T13:52:26.734Z,12.90
2022-10-19T13:55:12.172Z,13.00
2022-10-19T13:58:21.885Z,13.10
2022-10-19T14:01:17.063Z,13.10
2022-10-19T14:03:53.254Z,13.00
2022-10-19T14:06:44.338Z,13.10
2022-10-19T14:09:32.377Z,13.00
2022-10-19T14:12:14.248Z,13.00
2022-10-19T14:19:54.419Z,12.90
2022-10-19T14:22:25.189Z,12.80
2022-10-19T14:24:52.173Z,12.60
2022-10-19T14:27:23.247Z,12.60
2022-10-19T14:29:51.477Z,12.40
2022-10-19T14:32:23.088Z,12.20
2022-10-19T14:34:52.459Z,12.10
2022-10-19T14:37:24.551Z,12.00
2022-10-19T14:40:01.814Z,11.80
2022-10-19T14:42:44.181Z,11.80
2022-10-19T14:45:18.639Z,11.80
2022-10-19T14:48:01.643Z,11.80
2022-10-19T14:50:34.486Z,11.80
2022-10-19T14:53:26.762Z,11.80
2022-10-19T14:55:55.531Z,11.70
2022-10-19T14:58:22.786Z,11.60
2022-10-19T15:00:49.886Z,11.50
2022-10-19T15:03:24.454Z,11.50
2022-10-19T15:05:54.613Z,11.40
2022-10-19T15:08:33.998Z,11.30
2022-10-19T15:11:02.992Z,11.20
2022-10-19T15:13:35.388Z,11.20
2022-10-19T15:16:04.427Z,11.20
2022-10-19T15:18:48.778Z,11.20
2022-10-19T15:21:19.442Z,11.20
2022-10-19T15:23:54.862Z,11.20
2022-10-19T15:26:30.170Z,11.20
2022-10-19T15:29:08.384Z,11.20
2022-10-19T15:31:35.202Z,11.10
2022-10-19T15:34:02.413Z,11.10
2022-10-19T15:36:30.053Z,11.10
2022-10-19T15:39:24.649Z,11.10
2022-10-19T15:41:50.790Z,11.00
2022-10-19T15:44:31.254Z,11.00
2022-10-19T15:47:16.407Z,11.10
2022-10-19T15:49:43.349Z,11.10
2022-10-19T15:52:26.928Z,11.10
2022-10-19T15:54:55.174Z,10.90
2022-10-19T15:57:31.675Z,10.90
2022-10-19T16:00:07.986Z,10.70
2022-10-19T16:02:34.854Z,10.70
2022-10-19T16:05:01.658Z,10.70
2022-10-19T16:07:30.629Z,10.60
2022-10-19T16:09:57.551Z,10.50
2022-10-19T16:12:29.405Z,10.50
2022-10-19T16:14:58.350Z,10.60
2022-10-19T16:17:25.131Z,10.50
2022-10-19T16:19:51.874Z,10.60
2022-10-19T16:22:20.751Z,10.60
2022-10-19T16:24:47.538Z,10.50
2022-10-19T16:27:16.197Z,10.60
2022-10-19T16:29:44.224Z,10.60
2022-10-19T16:32:11.012Z,10.60
2022-10-19T16:34:38.086Z,10.70
2022-10-19T16:37:06.911Z,10.70
2022-10-19T16:39:34.479Z,10.70
2022-10-19T16:42:03.826Z,10.80
2022-10-19T16:44:30.602Z,10.70
2022-10-19T16:46:57.487Z,10.70
2022-10-19T16:49:24.359Z,10.70
2022-10-19T16:51:54.695Z,10.70
2022-10-19T16:54:24.522Z,10.70
2022-10-19T16:56:51.253Z,10.70
2022-10-19T16:59:18.705Z,10.70
2022-10-19T17:01:48.359Z,10.70
2022-10-19T17:04:15.627Z,10.70
2022-10-19T17:06:42.522Z,10.60
2022-10-19T17:11:56.016Z,10.40
2022-10-19T17:14:22.821Z,10.40
2022-10-19T17:16:49.628Z,10.40
2022-10-19T17:19:16.486Z,10.30
2022-10-19T17:21:45.713Z,10.30
2022-10-19T17:24:20.127Z,10.30
2022-10-19T17:26:50.967Z,10.20
2022-10-19T17:29:18.013Z,10.30
2022-10-19T17:31:46.933Z,10.30
2022-10-19T17:34:13.948Z,10.30
2022-10-19T17:36:42.284Z,10.20
2022-10-19T17:39:11.687Z,10.10
2022-10-19T17:41:38.447Z,10.10
2022-10-19T17:44:05.349Z,10.00
2022-10-19T17:46:33.407Z,10.10
2022-10-19T17:49:00.245Z,10.10
2022-10-19T17:51:33.478Z,10.10
2022-10-19T17:54:01.925Z,10.10
2022-10-19T17:56:28.687Z,10.10
2022-10-19T17:58:56.395Z,10.00
2022-10-19T18:01:23.175Z,10.00
2022-10-19T18:03:50.244Z,10.00
2022-10-19T18:06:18.193Z,10.00
2022-10-19T18:08:47.403Z,10.00
2022-10-19T18:11:25.100Z,10.00
2022-10-19T18:13:52.387Z,9.90
2022-10-19T18:16:21.415Z,9.90
2022-10-19T18:18:51.237Z,9.80
2022-10-19T18:21:22.074Z,9.80
2022-10-19T18:23:49.030Z,9.80
2022-10-19T18:26:19.865Z,9.70
2022-10-19T18:28:46.668Z,9.80
2022-10-19T18:31:15.153Z,9.80
2022-10-19T18:33:42.033Z,9.70
2022-10-19T18:36:09.748Z,9.60
2022-10-19T18:38:39.619Z,9.50
2022-10-19T18:43:46.163Z,9.60
2022-10-19T18:46:13.192Z,9.60
2022-10-19T18:48:40.063Z,9.60
2022-10-19T18:51:07.806Z,9.40
2022-10-19T18:53:37.030Z,9.40
2022-10-19T18:56:07.320Z,9.40
2022-10-19T18:58:34.278Z,9.30
2022-10-19T19:01:06.897Z,9.30
2022-10-19T19:03:33.828Z,9.40
2022-10-19T19:06:01.707Z,9.40
2022-10-19T19:08:28.838Z,9.40
2022-10-19T19:11:01.443Z,9.30
2022-10-19T19:13:28.180Z,9.30
2022-10-19T19:16:00.615Z,9.30
2022-10-19T19:18:27.429Z,9.30
2022-10-19T19:20:54.203Z,9.30
2022-10-19T19:23:20.977Z,9.20
2022-10-19T19:25:48.127Z,9.00
2022-10-19T19:28:17.409Z,9.00
2022-10-19T19:30:45.082Z,9.00
2022-10-19T19:33:12.408Z,9.00
2022-10-19T19:35:45.089Z,8.90
2022-10-19T19:38:12.198Z,8.90
2022-10-19T19:40:40.665Z,8.90
2022-10-19T19:43:10.262Z,8.90
2022-10-19T19:45:37.284Z,8.90
2022-10-19T19:48:04.566Z,8.90
2022-10-19T19:50:34.223Z,8.80
2022-10-19T19:53:01.458Z,8.90
2022-10-19T19:55:28.594Z,8.90
2022-10-19T19:57:55.392Z,8.80
2022-10-19T20:00:22.584Z,8.80
2022-10-19T20:02:56.091Z,8.70
2022-10-19T20:05:22.954Z,8.60
2022-10-19T20:07:49.748Z,8.70
2022-10-19T20:10:16.776Z,8.70
2022-10-19T20:12:43.926Z,8.60
2022-10-19T20:15:13.695Z,8.50
2022-10-19T20:17:43.678Z,8.60
2022-10-19T20:20:13.628Z,8.60
2022-10-19T20:22:43.420Z,8.60
2022-10-19T20:25:12.656Z,8.60
2022-10-19T20:27:39.388Z,8.70
2022-10-19T20:30:06.950Z,8.60
2022-10-19T20:32:34.056Z,8.60
2022-10-19T20:35:01.148Z,8.60
2022-10-19T20:37:29.047Z,8.60
2022-10-19T20:39:55.912Z,8.50
2022-10-19T20:42:25.315Z,8.50
2022-10-19T20:44:54.677Z,8.50
2022-10-19T20:47:21.558Z,8.50
2022-10-19T20:49:48.406Z,8.40
2022-10-19T20:52:15.234Z,8.50
2022-10-19T20:54:42.080Z,8.50
2022-10-19T20:57:11.330Z,8.50
2022-10-19T20:59:39.572Z,8.50
2022-10-19T21:02:12.037Z,8.50
2022-10-19T21:04:38.911Z,8.50
2022-10-19T21:07:10.469Z,8.60
2022-10-19T21:09:37.233Z,8.50
2022-10-19T21:12:04.116Z,8.50
2022-10-19T21:14:31.360Z,8.50
2022-10-19T21:16:58.363Z,8.50
2022-10-19T21:19:25.864Z,8.40
2022-10-19T21:21:55.515Z,8.40
2022-10-19T21:24:30.716Z,8.40
2022-10-19T21:27:00.992Z,8.50
2022-10-19T21:29:27.930Z,8.50
2022-10-19T21:31:54.827Z,8.40
2022-10-19T21:34:26.188Z,8.30
2022-10-19T21:36:53.168Z,8.30
2022-10-19T21:39:20.109Z,8.30
2022-10-19T21:41:46.964Z,8.30
2022-10-19T21:44:16.801Z,8.40
2022-10-19T21:46:43.996Z,8.30
2022-10-19T21:49:16.448Z,8.30
2022-10-19T21:51:47.076Z,8.40
2022-10-19T21:54:19.060Z,8.40
2022-10-19T21:56:46.098Z,8.50
2022-10-19T21:59:15.455Z,8.40
2022-10-19T22:01:42.312Z,8.40
2022-10-19T22:04:18.027Z,8.30
2022-10-19T22:06:44.825Z,8.30
2022-10-19T22:09:17.019Z,8.40
2022-10-19T22:11:46.505Z,8.30
2022-10-19T22:14:14.067Z,8.20
2022-10-19T22:16:45.723Z,8.20
2022-10-19T22:19:17.236Z,8.20
2022-10-19T22:21:44.120Z,8.20
2022-10-19T22:24:13.221Z,8.20
2022-10-19T22:26:42.310Z,7.90
2022-10-19T22:29:09.354Z,8.10
2022-10-19T22:31:36.880Z,8.20
2022-10-19T22:34:11.727Z,8.20
2022-10-19T22:36:38.712Z,8.20
2022-10-19T22:39:07.787Z,8.30
2022-10-19T22:42:31.006Z,8.30
2022-10-19T22:45:00.216Z,8.30
2022-10-19T22:47:27.048Z,8.20
2022-10-19T22:49:53.785Z,8.30
2022-10-19T22:52:22.813Z,8.30
2022-10-19T22:54:51.240Z,8.30
2022-10-19T22:57:17.978Z,8.30
2022-10-19T22:59:44.738Z,8.20
2022-10-19T23:02:13.712Z,8.20
2022-10-19T23:04:40.497Z,8.20
2022-10-19T23:07:07.298Z,8.20
2022-10-19T23:09:34.056Z,8.20
2022-10-19T23:12:00.779Z,8.20
2022-10-19T23:14:27.574Z,8.20
2022-10-19T23:16:54.298Z,8.20
2022-10-19T23:19:23.300Z,8.20
2022-10-19T23:21:52.204Z,8.10
2022-10-19T23:24:23.667Z,8.20
2022-10-19T23:26:50.398Z,8.10
2022-10-19T23:29:19.719Z,8.10
2022-10-19T23:31:49.273Z,8.00
2022-10-19T23:34:18.397Z,8.00
2022-10-19T23:36:45.246Z,8.00
2022-10-19T23:39:12.021Z,8.00
2022-10-19T23:41:41.381Z,8.00
2022-10-19T23:44:09.209Z,8.00
2022-10-19T23:46:38.351Z,7.90
2022-10-19T23:49:07.666Z,7.90
2022-10-19T23:51:34.424Z,7.90
2022-10-19T23:54:01.218Z,7.90
2022-10-19T23:56:28.950Z,7.90
2022-10-19T23:58:56.073Z,7.80
